Latest Weather Observations for Mandora

IDW60801

Issued at 11:03 pm WST Saturday 23 January 2021 (issued every 10 minutes, with the page automatically refreshed every 10 minutes)

About weather observations | Map of weather stations | Latest weather observations for WA | Other Formats
Station Details ID: 004019 Name: MANDORA Lat: -19.74 Lon: 120.84 Height: 7.5 m
Data from the previous 72 hours. | See also: Recent months at Mandora
Date/Time
WST
Temp
°C
App
Temp
°C
Dew
Point
°C
Rel
Hum
%
Delta-T
°C
Wind Press
QNH
hPa
Press
MSL
hPa
Rain since
9am
mm
Dir  Spd
km/h
Gust
km/h
Spd
kts
Gust
kts
23/11:00pm 28.8 - - - - WNW 15 22 8 12 1003.8 1003.7 0.2
23/10:30pm 28.7 - - - - WNW 13 19 7 10 1003.9 1003.8 0.2
23/10:00pm 28.7 - - - - WNW 15 24 8 13 1003.8 1003.7 0.2
23/09:30pm 29.0 - - - - WNW 17 24 9 13 1003.7 1003.6 0.2
23/09:00pm 29.0 - - - - WNW 15 26 8 14 1003.7 1003.6 0.2
23/08:30pm 29.1 - - - - WNW 15 24 8 13 1003.4 1003.3 0.2
23/08:00pm 29.2 - - - - WNW 17 26 9 14 1003.3 1003.2 0.2
23/07:30pm 29.3 - - - - WNW 15 22 8 12 1003.0 1002.9 0.2
23/07:00pm 29.5 - - - - WNW 17 26 9 14 1002.7 1002.6 0.2
23/06:30pm 30.1 - - - - WNW 17 26 9 14 1002.7 1002.6 0.2
23/06:00pm 30.9 - - - - WNW 22 35 12 19 1002.4 1002.3 0.2
23/05:30pm 31.6 - - - - WNW 19 33 10 18 1002.3 1002.2 0.2
23/05:00pm 32.6 - - - - WNW 22 35 12 19 1002.1 1002.0 0.2
23/04:30pm 32.6 - - - - WNW 24 35 13 19 1001.9 1001.8 0.2
23/04:00pm 32.6 - - - - NW 20 33 11 18 1001.8 1001.7 0.2
23/03:30pm 33.1 - - - - NW 20 32 11 17 1001.5 1001.4 0.2
23/03:00pm 32.4 - - - - NW 24 35 13 19 1001.7 1001.6 0.2
23/02:30pm 33.4 - - - - WNW 20 30 11 16 1001.8 1001.7 0.2
23/02:00pm 33.1 - - - - NW 20 32 11 17 1001.8 1001.7 0.2
23/01:30pm 33.1 - - - - WNW 19 33 10 18 1001.8 1001.7 0.2
23/01:00pm 33.4 - - - - NW 19 30 10 16 1001.9 1001.8 0.2
23/12:30pm 33.1 - - - - NW 20 30 11 16 1002.0 1001.9 0.2
23/12:00pm 33.0 - - - - NW 19 30 10 16 1002.0 1001.9 0.2
23/11:30am 33.0 - - - - NW 19 26 10 14 1002.4 1002.3 0.2
23/11:00am 32.5 - - - - NW 13 20 7 11 1002.7 1002.6 0.2
23/10:30am 32.6 - - - - WSW 13 20 7 11 1003.1 1003.0 0.2
23/10:00am 32.1 - - - - SW 7 15 4 8 1003.2 1003.1 0.2
23/09:30am 30.0 - - - - SW 11 17 6 9 1003.5 1003.4 0.2
23/09:00am 30.3 - - - - SW 13 19 7 10 1003.7 1003.6 6.2
23/08:30am 29.6 - - - - SW 11 19 6 10 1003.7 1003.6 6.2
23/08:00am 28.5 - - - - SSW 13 19 7 10 1003.4 1003.3 6.2
23/07:30am 26.9 - - - - SW 15 24 8 13 1003.3 1003.2 6.2
23/07:00am 25.2 - - - - WSW 11 15 6 8 1003.0 1002.9 6.2
23/06:30am 23.7 - - - - W 9 11 5 6 1002.5 1002.4 6.2
23/06:00am 23.0 - - - - W 7 9 4 5 1002.3 1002.2 6.2
23/05:30am 22.8 - - - - WNW 7 9 4 5 1001.9 1001.8 6.2
23/05:00am 23.1 - - - - WNW 7 9 4 5 1001.3 1001.2 6.2
23/04:30am 23.3 - - - - W 6 7 3 4 1000.8 1000.7 6.2
23/04:00am 23.6 - - - - SW 9 15 5 8 1000.6 1000.5 6.2
23/03:30am 23.9 - - - - SW 15 20 8 11 1000.6 1000.5 6.2
23/03:00am 24.0 - - - - WSW 13 20 7 11 1000.7 1000.6 6.2
23/02:30am 23.9 - - - - WSW 13 20 7 11 1000.7 1000.6 6.2
23/02:00am 24.0 - - - - W 13 19 7 10 1000.4 1000.3 6.2
23/01:30am 24.4 - - - - WSW 13 19 7 10 1000.4 1000.3 6.2
23/01:00am 24.0 - - - - WSW 15 19 8 10 1000.2 1000.1 6.2
23/12:30am 24.3 - - - - WSW 17 26 9 14 1000.3 1000.2 6.2
23/12:00am 24.4 - - - - SW 17 26 9 14 1000.5 1000.4 6.2
 
Date/Time
WST
Temp
°C
App
Temp
°C
Dew
Point
°C
Rel
Hum
%
Delta-T
°C
Wind Press
QNH
hPa
Press
MSL
hPa
Rain since
9am
mm
Dir  Spd
km/h
Gust
km/h
Spd
kts
Gust
kts
22/11:30pm 24.3 - - - - SW 19 24 10 13 1000.6 1000.5 6.2
22/11:00pm 24.3 - - - - WSW 15 22 8 12 1000.8 1000.7 6.2
22/10:30pm 24.4 - - - - SW 17 26 9 14 1000.9 1000.8 6.2
22/10:00pm 24.3 - - - - WSW 17 26 9 14 1000.5 1000.4 6.2
22/09:30pm 24.1 - - - - SW 17 22 9 12 1000.2 1000.1 6.2
22/09:00pm 24.1 - - - - WSW 13 19 7 10 999.6 999.5 6.2
22/08:30pm 24.3 - - - - SSW 19 26 10 14 998.8 998.7 6.2
22/08:00pm 24.4 - - - - S 24 32 13 17 998.1 998.0 6.2
22/07:30pm 24.3 - - - - S 28 41 15 22 997.7 997.6 6.2
22/07:00pm 24.1 - - - - S 30 44 16 24 997.5 997.4 6.2
22/06:30pm 24.1 - - - - SSW 35 50 19 27 996.7 996.6 6.2
22/06:21pm 24.3 - - - - SSW 32 50 17 27 996.4 996.3 6.2
22/06:00pm 26.1 - - - - SSW 24 39 13 21 995.8 995.7 6.0
22/05:30pm 27.6 - - - - SSE 15 26 8 14 994.9 994.8 6.0
22/05:00pm 28.3 - - - - ESE 17 28 9 15 994.1 994.0 6.0
22/04:30pm 28.3 - - - - E 19 32 10 17 993.7 993.6 6.0
22/04:00pm 28.3 - - - - NE 24 35 13 19 993.4 993.3 6.0
22/03:30pm 28.6 - - - - NE 28 43 15 23 993.4 993.3 6.0
22/03:16pm 29.0 - - - - NNE 28 46 15 25 993.5 993.4 6.0
22/03:00pm 29.2 - - - - NNE 28 43 15 23 993.7 993.6 6.0
22/02:30pm 28.5 - - - - N 35 48 19 26 993.9 993.8 6.0
22/02:00pm 28.9 - - - - NNE 35 56 19 30 994.2 994.1 6.0
22/01:38pm 28.5 - - - - NNE 35 56 19 30 994.3 994.2 6.0
22/01:30pm 28.5 - - - - NNE 37 50 20 27 994.4 994.3 6.0
22/01:00pm 28.0 - - - - NNE 35 50 19 27 994.5 994.4 6.0
22/12:30pm 27.6 - - - - NNE 32 48 17 26 995.3 995.2 6.0
22/12:19pm 27.3 - - - - NE 28 48 15 26 995.5 995.4 6.0
22/12:00pm 26.7 - - - - NE 24 44 13 24 995.9 995.8 6.0
22/11:30am 25.6 - - - - ENE 20 35 11 19 996.3 996.2 6.0
22/11:00am 24.7 - - - - E 28 44 15 24 996.0 995.9 6.0
22/10:30am 24.0 - - - - E 32 54 17 29 996.3 996.2 6.0
22/10:00am 23.8 - - - - E 32 61 17 33 996.6 996.5 6.0
22/09:30am 23.2 - - - - ENE 33 54 18 29 997.2 997.1 4.6
22/09:27am 23.2 - - - - ENE 35 69 19 37 997.3 997.2 4.4
22/09:00am 23.5 - - - - E 39 65 21 35 996.7 996.6 105.4
22/08:30am 24.0 - - - - E 39 59 21 32 996.7 996.6 99.8
22/08:00am 24.3 - - - - ESE 41 63 22 34 996.9 996.8 97.0
22/07:30am 24.1 - - - - ESE 39 67 21 36 996.9 996.8 96.2
22/07:01am 24.0 - - - - ESE 35 63 19 34 997.6 997.5 94.8
22/07:00am 24.0 - - - - ESE 35 52 19 28 997.8 997.7 94.8
22/06:30am 24.0 - - - - ESE 30 56 16 30 997.9 997.8 84.0
22/06:22am 23.9 - - - - ESE 30 56 16 30 997.3 997.2 82.8
22/06:19am 23.9 - - - - SE 33 61 18 33 997.6 997.5 82.0
22/06:00am 23.8 - - - - SE 39 67 21 36 997.4 997.3 77.8
22/05:30am 23.7 - - - - SE 35 61 19 33 998.1 998.0 71.0
22/05:01am 23.4 - - - - SE 32 54 17 29 998.8 998.7 58.2
22/05:00am 23.4 - - - - SE 32 48 17 26 998.9 998.8 58.0
22/04:30am 23.2 - - - - SE 28 46 15 25 999.9 999.8 50.8
22/04:05am 23.3 - - - - SSE 28 46 15 25 1000.2 1000.1 41.4
22/04:00am 23.2 - - - - SSE 26 44 14 24 1000.1 1000.0 40.4
22/03:30am 23.0 - - - - SE 24 39 13 21 1001.5 1001.4 34.6
22/03:00am 22.9 - - - - SE 24 37 13 20 1001.9 1001.8 30.4
22/02:30am 23.1 - - - - SE 24 43 13 23 1002.0 1001.9 27.4
22/02:06am 23.1 - - - - SE 28 46 15 25 1002.0 1001.9 25.6
22/02:00am 23.2 - - - - SE 28 44 15 24 1002.3 1002.2 25.4
22/01:44am 23.4 - - - - SE 28 46 15 25 1002.0 1001.9 24.8
22/01:30am 23.7 - - - - SE 26 39 14 21 1002.6 1002.5 24.2
22/01:00am 24.2 - - - - SE 24 43 13 23 1003.6 1003.5 22.0
22/12:30am 24.2 - - - - SE 24 41 13 22 1003.8 1003.7 19.8
22/12:00am 24.0 - - - - SE 22 37 12 20 1004.6 1004.5 17.0
 
Date/Time
WST
Temp
°C
App
Temp
°C
Dew
Point
°C
Rel
Hum
%
Delta-T
°C
Wind Press
QNH
hPa
Press
MSL
hPa
Rain since
9am
mm
Dir  Spd
km/h
Gust
km/h
Spd
kts
Gust
kts
21/11:30pm 23.6 - - - - ESE 26 44 14 24 1005.0 1004.9 15.2
21/11:00pm 24.4 - - - - ESE 20 33 11 18 1005.6 1005.5 12.8
21/10:30pm 24.3 - - - - ESE 20 33 11 18 1006.4 1006.3 11.2
21/10:00pm 24.3 - - - - ESE 19 28 10 15 1006.4 1006.3 9.6
21/09:30pm 24.6 - - - - ESE 19 30 10 16 1006.3 1006.2 7.6
21/09:00pm 24.8 - - - - ESE 19 33 10 18 1006.1 1006.0 5.8
21/08:30pm 25.0 - - - - ESE 19 28 10 15 1006.1 1006.0 4.6
21/08:00pm 25.5 - - - - E 15 26 8 14 1006.1 1006.0 4.4
21/07:30pm 26.0 - - - - ESE 11 20 6 11 1006.3 1006.2 3.2
21/07:00pm 27.2 - - - - E 7 11 4 6 1005.9 1005.8 0.8
21/06:30pm 27.3 - - - - NE 6 9 3 5 1005.0 1004.9 0.2
21/06:00pm 27.8 - - - - CALM 0 0 0 0 1004.3 1004.2 0.2
21/05:30pm 28.2 - - - - NE 2 6 1 3 1004.4 1004.3 0.2
21/05:00pm 28.3 - - - - NE 4 9 2 5 1004.2 1004.1 0.2
21/04:30pm 28.5 - - - - ENE 6 9 3 5 1004.0 1003.9 0.2
21/04:00pm 29.0 - - - - NE 6 7 3 4 1004.4 1004.3 0.0
21/03:30pm 30.5 - - - - ESE 9 15 5 8 1004.4 1004.3 0.0
21/03:00pm 30.7 - - - - ESE 9 13 5 7 1004.8 1004.7 0.0
21/02:30pm 30.6 - - - - SE 6 9 3 5 1004.9 1004.8 0.0
21/02:00pm 30.9 - - - - CALM 0 6 0 3 1005.2 1005.1 0.0
21/01:30pm 31.7 - - - - NNE 7 11 4 6 1005.6 1005.5 0.0
21/01:00pm 31.9 - - - - N 9 15 5 8 1005.7 1005.6 0.0
21/12:30pm 31.6 - - - - N 13 20 7 11 1005.9 1005.8 0.0
21/12:00pm 33.6 - - - - ENE 7 11 4 6 1006.0 1005.9 0.0
21/11:30am 34.9 - - - - E 4 11 2 6 1006.2 1006.1 0.0
21/11:00am 33.3 - - - - ENE 9 17 5 9 1006.7 1006.6 0.0
21/10:30am 34.1 - - - - ENE 9 19 5 10 1007.2 1007.1 0.0
21/10:00am 33.5 - - - - ENE 9 15 5 8 1007.4 1007.3 0.0
21/09:30am 33.0 - - - - ENE 9 17 5 9 1007.7 1007.6 0.0
21/09:00am 33.4 - - - - E 7 17 4 9 1007.6 1007.5 0.0
21/08:30am 32.9 - - - - E 9 15 5 8 1007.5 1007.4 0.0
21/08:00am 32.1 - - - - ENE 11 17 6 9 1007.3 1007.2 0.0
21/07:30am 31.8 - - - - ENE 13 24 7 13 1007.2 1007.1 0.0
21/07:00am 30.8 - - - - ENE 9 17 5 9 1007.0 1006.9 0.0
21/06:30am 30.0 - - - - E 7 13 4 7 1006.9 1006.8 0.0
21/06:00am 29.4 - - - - E 7 11 4 6 1006.8 1006.7 0.0
21/05:30am 29.1 - - - - ESE 6 9 3 5 1006.6 1006.5 0.0
21/05:00am 29.1 - - - - ESE 6 9 3 5 1006.2 1006.1 0.0
21/04:30am 28.9 - - - - CALM 0 0 0 0 1006.0 1005.9 0.0
21/04:00am 28.8 - - - - CALM 0 0 0 0 1005.8 1005.7 0.0
21/03:30am 29.0 - - - - CALM 0 0 0 0 1005.7 1005.6 0.0
21/03:00am 29.0 - - - - CALM 0 0 0 0 1005.9 1005.8 0.0
21/02:30am 29.7 - - - - CALM 0 2 0 1 1005.9 1005.8 0.0
21/02:00am 30.3 - - - - WNW 6 7 3 4 1005.8 1005.7 0.0
21/01:30am 30.8 - - - - N 9 13 5 7 1006.2 1006.1 0.0
21/01:00am 31.0 - - - - N 11 19 6 10 1006.4 1006.3 0.0
21/12:30am 30.8 - - - - NNW 13 17 7 9 1006.3 1006.2 0.0
21/12:00am 31.1 - - - - NNW 17 24 9 13 1006.2 1006.1 0.0
 
Date/Time
WST
Temp
°C
App
Temp
°C
Dew
Point
°C
Rel
Hum
%
Delta-T
°C
Wind Press
QNH
hPa
Press
MSL
hPa
Rain since
9am
mm
Dir  Spd
km/h
Gust
km/h
Spd
kts
Gust
kts
20/11:30pm 31.1 - - - - N 15 20 8 11 1006.4 1006.3 0.0

Other formats

Comma delimited format used in spreadsheet applications
http://www.bom.gov.au/fwo/IDW60801/IDW60801.94200.axf

JavaScript Object Notation format (JSON) in row-major order
http://www.bom.gov.au/fwo/IDW60801/IDW60801.94200.json

Data quality

Most of these data are generated automatically and are frequently updated. Quality checks on data are not normally performed. It is possible for incorrect values to appear. Refer to information at About Latest Weather Observations and please check the disclaimer before using these data.